sensor_id;sensor_type;location;lat;lon;timestamp;pressure;altitude;pressure_sealevel;temperature;humidity
63652;BME280;49801;37.536;-122.304;2022-11-12T00:00:02;101830.75;;;13.76;49.00
63652;BME280;49801;37.536;-122.304;2022-11-12T00:00:28;101836.50;;;13.73;48.53
63652;BME280;49801;37.536;-122.304;2022-11-12T00:00:54;101831.06;;;13.73;48.63
63652;BME280;49801;37.536;-122.304;2022-11-12T00:01:20;101834.97;;;13.70;49.18
63652;BME280;49801;37.536;-122.304;2022-11-12T00:01:45;101830.34;;;13.62;49.41
63652;BME280;49801;37.536;-122.304;2022-11-12T00:02:11;101826.63;;;13.63;49.30
63652;BME280;49801;37.536;-122.304;2022-11-12T00:02:37;101827.47;;;13.64;49.64
63652;BME280;49801;37.536;-122.304;2022-11-12T00:03:03;101826.44;;;13.65;49.68
63652;BME280;49801;37.536;-122.304;2022-11-12T00:03:29;101833.75;;;13.64;49.84
63652;BME280;49801;37.536;-122.304;2022-11-12T00:03:54;101831.72;;;13.66;49.73
63652;BME280;49801;37.536;-122.304;2022-11-12T00:04:21;101827.47;;;13.64;50.02
63652;BME280;49801;37.536;-122.304;2022-11-12T00:04:47;101823.38;;;13.60;50.75
63652;BME280;49801;37.536;-122.304;2022-11-12T00:05:13;101821.84;;;13.57;50.96
63652;BME280;49801;37.536;-122.304;2022-11-12T00:05:38;101829.16;;;13.57;51.17
63652;BME280;49801;37.536;-122.304;2022-11-12T00:06:04;101829.31;;;13.55;51.52
63652;BME280;49801;37.536;-122.304;2022-11-12T00:06:30;101831.00;;;13.56;51.43
63652;BME280;49801;37.536;-122.304;2022-11-12T00:06:56;101834.25;;;13.52;51.79
63652;BME280;49801;37.536;-122.304;2022-11-12T00:07:22;101828.81;;;13.52;52.14
63652;BME280;49801;37.536;-122.304;2022-11-12T00:07:47;101831.69;;;13.50;52.33
63652;BME280;49801;37.536;-122.304;2022-11-12T00:08:13;101823.84;;;13.47;53.11
63652;BME280;49801;37.536;-122.304;2022-11-12T00:08:39;101831.69;;;13.50;53.14
63652;BME280;49801;37.536;-122.304;2022-11-12T00:09:05;101836.44;;;13.48;53.51
63652;BME280;49801;37.536;-122.304;2022-11-12T00:09:31;101835.75;;;13.46;53.84
63652;BME280;49801;37.536;-122.304;2022-11-12T00:09:57;101830.66;;;13.43;54.27
63652;BME280;49801;37.536;-122.304;2022-11-12T00:10:22;101834.38;;;13.42;54.61
63652;BME280;49801;37.536;-122.304;2022-11-12T00:10:48;101830.97;;;13.40;54.67
63652;BME280;49801;37.536;-122.304;2022-11-12T00:11:14;101831.13;;;13.38;55.04
63652;BME280;49801;37.536;-122.304;2022-11-12T00:11:40;101827.56;;;13.38;54.95
63652;BME280;49801;37.536;-122.304;2022-11-12T00:12:05;101823.81;;;13.39;54.98
63652;BME280;49801;37.536;-122.304;2022-11-12T00:12:31;101829.25;;;13.39;55.16
63652;BME280;49801;37.536;-122.304;2022-11-12T00:12:57;101828.41;;;13.38;55.05
63652;BME280;49801;37.536;-122.304;2022-11-12T00:13:23;101826.88;;;13.36;55.04
63652;BME280;49801;37.536;-122.304;2022-11-12T00:13:49;101826.47;;;13.30;55.32
63652;BME280;49801;37.536;-122.304;2022-11-12T00:14:15;101832.94;;;13.29;55.11
63652;BME280;49801;37.536;-122.304;2022-11-12T00:14:43;101824.09;;;13.27;54.95
63652;BME280;49801;37.536;-122.304;2022-11-12T00:15:09;101828.50;;;13.28;54.94
63652;BME280;49801;37.536;-122.304;2022-11-12T00:15:35;101831.91;;;13.30;54.98
63652;BME280;49801;37.536;-122.304;2022-11-12T00:16:01;101825.63;;;13.30;55.45
63652;BME280;49801;37.536;-122.304;2022-11-12T00:16:27;101831.91;;;13.30;55.42
63652;BME280;49801;37.536;-122.304;2022-11-12T00:16:53;101832.09;;;13.29;55.18
63652;BME280;49801;37.536;-122.304;2022-11-12T00:17:18;101828.84;;;13.25;54.39
63652;BME280;49801;37.536;-122.304;2022-11-12T00:17:44;101823.75;;;13.22;53.97
63652;BME280;49801;37.536;-122.304;2022-11-12T00:18:10;101831.19;;;13.20;54.28
63652;BME280;49801;37.536;-122.304;2022-11-12T00:18:36;101830.66;;;13.17;54.52
63652;BME280;49801;37.536;-122.304;2022-11-12T00:19:02;101829.81;;;13.16;54.55
63652;BME280;49801;37.536;-122.304;2022-11-12T00:19:27;101831.03;;;13.13;54.61
63652;BME280;49801;37.536;-122.304;2022-11-12T00:19:53;101837.31;;;13.14;54.54
63652;BME280;49801;37.536;-122.304;2022-11-12T00:20:19;101833.56;;;13.15;54.38
63652;BME280;49801;37.536;-122.304;2022-11-12T00:20:45;101833.56;;;13.15;54.17
63652;BME280;49801;37.536;-122.304;2022-11-12T00:21:10;101824.38;;;13.16;53.96
63652;BME280;49801;37.536;-122.304;2022-11-12T00:21:36;101826.25;;;13.16;54.33
63652;BME280;49801;37.536;-122.304;2022-11-12T00:22:02;101827.25;;;13.14;54.64
63652;BME280;49801;37.536;-122.304;2022-11-12T00:22:28;101824.38;;;13.16;54.74
63652;BME280;49801;37.536;-122.304;2022-11-12T00:22:53;101827.78;;;13.18;54.78
63652;BME280;49801;37.536;-122.304;2022-11-12T00:23:19;101829.50;;;13.19;55.17
63652;BME280;49801;37.536;-122.304;2022-11-12T00:23:45;101830.34;;;13.20;55.12
63652;BME280;49801;37.536;-122.304;2022-11-12T00:24:11;101824.06;;;13.19;55.10
63652;BME280;49801;37.536;-122.304;2022-11-12T00:24:36;101830.19;;;13.21;55.28
63652;BME280;49801;37.536;-122.304;2022-11-12T00:25:02;101828.66;;;13.19;55.19
63652;BME280;49801;37.536;-122.304;2022-11-12T00:25:28;101822.34;;;13.18;55.04
63652;BME280;49801;37.536;-122.304;2022-11-12T00:25:58;101831.84;;;13.14;55.14
63652;BME280;49801;37.536;-122.304;2022-11-12T00:26:24;101833.91;;;13.12;55.08
63652;BME280;49801;37.536;-122.304;2022-11-12T00:26:50;101828.78;;;13.09;55.28
63652;BME280;49801;37.536;-122.304;2022-11-12T00:27:16;101825.91;;;13.10;55.11
63652;BME280;49801;37.536;-122.304;2022-11-12T00:27:42;101831.50;;;13.09;55.40
63652;BME280;49801;37.536;-122.304;2022-11-12T00:28:08;101827.06;;;13.08;55.41
63652;BME280;49801;37.536;-122.304;2022-11-12T00:28:34;101829.09;;;13.06;55.76
63652;BME280;49801;37.536;-122.304;2022-11-12T00:29:00;101831.13;;;13.04;56.56
63652;BME280;49801;37.536;-122.304;2022-11-12T00:29:26;101823.97;;;13.03;56.38
63652;BME280;49801;37.536;-122.304;2022-11-12T00:29:52;101829.41;;;13.03;56.76
63652;BME280;49801;37.536;-122.304;2022-11-12T00:30:17;101832.84;;;13.05;56.77
63652;BME280;49801;37.536;-122.304;2022-11-12T00:30:43;101827.72;;;13.02;57.69
63652;BME280;49801;37.536;-122.304;2022-11-12T00:31:09;101833.00;;;13.03;57.54
63652;BME280;49801;37.536;-122.304;2022-11-12T00:31:36;101831.97;;;13.04;57.25
63652;BME280;49801;37.536;-122.304;2022-11-12T00:32:02;101827.41;;;13.05;57.48
63652;BME280;49801;37.536;-122.304;2022-11-12T00:32:28;101827.41;;;13.05;57.41
63652;BME280;49801;37.536;-122.304;2022-11-12T00:32:53;101829.94;;;13.06;57.57
63652;BME280;49801;37.536;-122.304;2022-11-12T00:33:19;101831.81;;;13.06;57.78
63652;BME280;49801;37.536;-122.304;2022-11-12T00:33:45;101831.81;;;13.06;58.10
63652;BME280;49801;37.536;-122.304;2022-11-12T00:34:11;101834.84;;;13.03;58.40
63652;BME280;49801;37.536;-122.304;2022-11-12T00:34:36;101830.59;;;13.00;58.92
63652;BME280;49801;37.536;-122.304;2022-11-12T00:35:03;101831.44;;;13.01;58.88
63652;BME280;49801;37.536;-122.304;2022-11-12T00:35:32;101838.06;;;12.98;59.48
63652;BME280;49801;37.536;-122.304;2022-11-12T00:35:58;101824.47;;;12.98;59.08
63652;BME280;49801;37.536;-122.304;2022-11-12T00:36:25;101831.75;;;12.98;58.92
63652;BME280;49801;37.536;-122.304;2022-11-12T00:36:50;101828.38;;;12.95;59.36
63652;BME280;49801;37.536;-122.304;2022-11-12T00:37:16;101832.13;;;12.94;59.58
63652;BME280;49801;37.536;-122.304;2022-11-12T00:37:43;101832.44;;;12.91;59.71
63652;BME280;49801;37.536;-122.304;2022-11-12T00:38:08;101821.72;;;12.90;59.70
63652;BME280;49801;37.536;-122.304;2022-11-12T00:38:34;101825.44;;;12.89;59.79
63652;BME280;49801;37.536;-122.304;2022-11-12T00:39:00;101825.59;;;12.87;59.94
63652;BME280;49801;37.536;-122.304;2022-11-12T00:39:26;101825.59;;;12.87;60.03
63652;BME280;49801;37.536;-122.304;2022-11-12T00:39:52;101825.59;;;12.87;60.17
63652;BME280;49801;37.536;-122.304;2022-11-12T00:40:17;101825.59;;;12.87;59.88
63652;BME280;49801;37.536;-122.304;2022-11-12T00:40:43;101824.75;;;12.87;60.00
63652;BME280;49801;37.536;-122.304;2022-11-12T00:41:09;101822.19;;;12.85;60.05
63652;BME280;49801;37.536;-122.304;2022-11-12T00:41:35;101821.34;;;12.85;60.19
63652;BME280;49801;37.536;-122.304;2022-11-12T00:42:00;101822.34;;;12.84;60.43
63652;BME280;49801;37.536;-122.304;2022-11-12T00:42:26;101821.66;;;12.82;60.65
63652;BME280;49801;37.536;-122.304;2022-11-12T00:42:52;101821.66;;;12.82;60.45
63652;BME280;49801;37.536;-122.304;2022-11-12T00:43:18;101820.81;;;12.81;60.31
63652;BME280;49801;37.536;-122.304;2022-11-12T00:43:43;101823.84;;;12.78;60.81
63652;BME280;49801;37.536;-122.304;2022-11-12T00:44:09;101826.56;;;12.78;60.94
63652;BME280;49801;37.536;-122.304;2022-11-12T00:44:35;101825.19;;;12.74;61.17
63652;BME280;49801;37.536;-122.304;2022-11-12T00:45:01;101826.19;;;12.73;61.28
63652;BME280;49801;37.536;-122.304;2022-11-12T00:45:27;101834.66;;;12.70;61.72
63652;BME280;49801;37.536;-122.304;2022-11-12T00:45:52;101836.69;;;12.68;61.66
63652;BME280;49801;37.536;-122.304;2022-11-12T00:46:18;101829.56;;;12.67;61.44
63652;BME280;49801;37.536;-122.304;2022-11-12T00:46:44;101828.69;;;12.66;61.35
63652;BME280;49801;37.536;-122.304;2022-11-12T00:47:10;101829.88;;;12.64;61.51
63652;BME280;49801;37.536;-122.304;2022-11-12T00:47:36;101832.75;;;12.62;61.48
63652;BME280;49801;37.536;-122.304;2022-11-12T00:48:01;101826.47;;;12.62;61.39
63652;BME280;49801;37.536;-122.304;2022-11-12T00:48:27;101828.50;;;12.60;61.61
63652;BME280;49801;37.536;-122.304;2022-11-12T00:48:53;101827.66;;;12.59;61.49
63652;BME280;49801;37.536;-122.304;2022-11-12T00:49:19;101828.81;;;12.56;61.75
63652;BME280;49801;37.536;-122.304;2022-11-12T00:49:44;101827.13;;;12.55;61.74
63652;BME280;49801;37.536;-122.304;2022-11-12T00:50:10;101827.28;;;12.54;62.02
63652;BME280;49801;37.536;-122.304;2022-11-12T00:50:36;101831.84;;;12.53;62.08
63652;BME280;49801;37.536;-122.304;2022-11-12T00:51:03;101825.72;;;12.51;62.03
63652;BME280;49801;37.536;-122.304;2022-11-12T00:51:29;101826.91;;;12.49;62.61
63652;BME280;49801;37.536;-122.304;2022-11-12T00:51:55;101825.19;;;12.48;62.30
63652;BME280;49801;37.536;-122.304;2022-11-12T00:52:20;101824.66;;;12.44;62.97
63652;BME280;49801;37.536;-122.304;2022-11-12T00:52:46;101827.66;;;12.41;63.01
63652;BME280;49801;37.536;-122.304;2022-11-12T00:53:12;101820.56;;;12.40;63.51
63652;BME280;49801;37.536;-122.304;2022-11-12T00:53:38;101824.41;;;12.37;63.12
63652;BME280;49801;37.536;-122.304;2022-11-12T00:54:04;101819.16;;;12.36;63.48
63652;BME280;49801;37.536;-122.304;2022-11-12T00:54:30;101816.78;;;12.33;63.57
63652;BME280;49801;37.536;-122.304;2022-11-12T00:54:56;101820.63;;;12.30;63.70
63652;BME280;49801;37.536;-122.304;2022-11-12T00:55:21;101821.81;;;12.28;63.86
63652;BME280;49801;37.536;-122.304;2022-11-12T00:55:47;101823.84;;;12.26;63.92
63652;BME280;49801;37.536;-122.304;2022-11-12T00:56:13;101821.44;;;12.23;64.03
63652;BME280;49801;37.536;-122.304;2022-11-12T00:56:39;101817.16;;;12.20;64.19
63652;BME280;49801;37.536;-122.304;2022-11-12T00:57:04;101816.63;;;12.16;64.69
63652;BME280;49801;37.536;-122.304;2022-11-12T00:57:30;101822.34;;;12.13;64.61
63652;BME280;49801;37.536;-122.304;2022-11-12T00:57:59;101818.94;;;12.11;64.71
63652;BME280;49801;37.536;-122.304;2022-11-12T00:58:26;101817.56;;;12.07;64.92
63652;BME280;49801;37.536;-122.304;2022-11-12T00:58:52;101826.72;;;12.06;65.03
63652;BME280;49801;37.536;-122.304;2022-11-12T00:59:18;101818.72;;;12.05;65.40
63652;BME280;49801;37.536;-122.304;2022-11-12T00:59:43;101816.16;;;12.03;65.53
63652;BME280;49801;37.536;-122.304;2022-11-12T01:00:13;101829.03;;;12.01;65.56
63652;BME280;49801;37.536;-122.304;2022-11-12T01:00:39;101817.66;;;11.97;65.55
63652;BME280;49801;37.536;-122.304;2022-11-12T01:01:09;101823.22;;;11.96;65.66
63652;BME280;49801;37.536;-122.304;2022-11-12T01:01:35;101824.25;;;11.95;65.57
63652;BME280;49801;37.536;-122.304;2022-11-12T01:02:01;101823.53;;;11.93;65.73
63652;BME280;49801;37.536;-122.304;2022-11-12T01:02:26;101821.13;;;11.90;65.86
63652;BME280;49801;37.536;-122.304;2022-11-12T01:02:52;101826.84;;;11.87;65.86
63652;BME280;49801;37.536;-122.304;2022-11-12T01:03:18;101823.44;;;11.85;65.74
63652;BME280;49801;37.536;-122.304;2022-11-12T01:03:44;101819.47;;;11.79;66.44
63652;BME280;49801;37.536;-122.304;2022-11-12T01:04:10;101816.06;;;11.77;66.36
63652;BME280;49801;37.536;-122.304;2022-11-12T01:04:35;101812.66;;;11.75;66.33
63652;BME280;49801;37.536;-122.304;2022-11-12T01:05:01;101819.22;;;11.72;66.43
63652;BME280;49801;37.536;-122.304;2022-11-12T01:05:27;101810.41;;;11.70;66.45
63652;BME280;49801;37.536;-122.304;2022-11-12T01:05:53;101816.84;;;11.69;66.59
63652;BME280;49801;37.536;-122.304;2022-11-12T01:06:19;101817.16;;;11.66;66.72
63652;BME280;49801;37.536;-122.304;2022-11-12T01:06:45;101822.72;;;11.64;66.77
63652;BME280;49801;37.536;-122.304;2022-11-12T01:07:11;101819.16;;;11.64;66.90
63652;BME280;49801;37.536;-122.304;2022-11-12T01:07:37;101819.47;;;11.61;67.12
63652;BME280;49801;37.536;-122.304;2022-11-12T01:08:03;101818.78;;;11.59;67.02
63652;BME280;49801;37.536;-122.304;2022-11-12T01:08:29;101817.06;;;11.58;67.34
63652;BME280;49801;37.536;-122.304;2022-11-12T01:08:54;101816.50;;;11.54;67.29
63652;BME280;49801;37.536;-122.304;2022-11-12T01:09:20;101815.66;;;11.54;67.48
63652;BME280;49801;37.536;-122.304;2022-11-12T01:09:46;101815.97;;;11.51;67.50
63652;BME280;49801;37.536;-122.304;2022-11-12T01:10:12;101823.41;;;11.49;67.66
63652;BME280;49801;37.536;-122.304;2022-11-12T01:10:38;101817.25;;;11.47;67.77
63652;BME280;49801;37.536;-122.304;2022-11-12T01:11:11;101816.56;;;11.44;67.94
63652;BME280;49801;37.536;-122.304;2022-11-12T01:11:39;101825.72;;;11.43;67.90
63652;BME280;49801;37.536;-122.304;2022-11-12T01:12:05;101823.31;;;11.40;67.69
63652;BME280;49801;37.536;-122.304;2022-11-12T01:12:31;101826.31;;;11.37;67.62
63652;BME280;49801;37.536;-122.304;2022-11-12T01:12:56;101829.19;;;11.36;67.50
63652;BME280;49801;37.536;-122.304;2022-11-12T01:13:22;101826.59;;;11.34;67.30
63652;BME280;49801;37.536;-122.304;2022-11-12T01:13:52;101825.91;;;11.32;67.27
63652;BME280;49801;37.536;-122.304;2022-11-12T01:14:18;101831.63;;;11.29;67.42
63652;BME280;49801;37.536;-122.304;2022-11-12T01:14:44;101828.22;;;11.27;67.57
63652;BME280;49801;37.536;-122.304;2022-11-12T01:15:10;101827.53;;;11.25;67.67
63652;BME280;49801;37.536;-122.304;2022-11-12T01:15:39;101825.13;;;11.22;67.54
63652;BME280;49801;37.536;-122.304;2022-11-12T01:16:05;101826.13;;;11.21;67.66
63652;BME280;49801;37.536;-122.304;2022-11-12T01:16:38;101820.13;;;11.17;67.71
63652;BME280;49801;37.536;-122.304;2022-11-12T01:17:04;101822.16;;;11.15;67.81
63652;BME280;49801;37.536;-122.304;2022-11-12T01:17:30;101834.16;;;11.13;67.94
63652;BME280;49801;37.536;-122.304;2022-11-12T01:17:56;101831.59;;;11.11;68.02
63652;BME280;49801;37.536;-122.304;2022-11-12T01:18:22;101821.88;;;11.08;68.08
63652;BME280;49801;37.536;-122.304;2022-11-12T01:18:51;101823.06;;;11.06;68.03
63652;BME280;49801;37.536;-122.304;2022-11-12T01:19:17;101825.91;;;11.04;67.96
63652;BME280;49801;37.536;-122.304;2022-11-12T01:19:43;101828.91;;;11.01;68.38
63652;BME280;49801;37.536;-122.304;2022-11-12T01:20:08;101821.81;;;11.00;68.51
63652;BME280;49801;37.536;-122.304;2022-11-12T01:20:36;101824.81;;;10.97;68.59
63652;BME280;49801;37.536;-122.304;2022-11-12T01:21:02;101828.50;;;10.96;68.69
63652;BME280;49801;37.536;-122.304;2022-11-12T01:21:29;101827.94;;;10.93;68.50
63652;BME280;49801;37.536;-122.304;2022-11-12T01:21:55;101829.13;;;10.90;68.65
63652;BME280;49801;37.536;-122.304;2022-11-12T01:22:21;101830.25;;;10.87;68.52
63652;BME280;49801;37.536;-122.304;2022-11-12T01:22:46;101828.72;;;10.85;68.34
63652;BME280;49801;37.536;-122.304;2022-11-12T01:23:12;101829.69;;;10.84;68.34
63652;BME280;49801;37.536;-122.304;2022-11-12T01:23:39;101834.41;;;10.82;68.52
63652;BME280;49801;37.536;-122.304;2022-11-12T01:24:05;101826.56;;;10.79;68.75
63652;BME280;49801;37.536;-122.304;2022-11-12T01:24:31;101830.28;;;10.78;68.84
63652;BME280;49801;37.536;-122.304;2022-11-12T01:24:57;101832.28;;;10.76;68.76
63652;BME280;49801;37.536;-122.304;2022-11-12T01:25:22;101834.28;;;10.74;68.73
63652;BME280;49801;37.536;-122.304;2022-11-12T01:25:48;101835.47;;;10.71;68.79
63652;BME280;49801;37.536;-122.304;2022-11-12T01:26:14;101825.75;;;10.68;68.73
63652;BME280;49801;37.536;-122.304;2022-11-12T01:26:41;101833.19;;;10.66;68.95
63652;BME280;49801;37.536;-122.304;2022-11-12T01:27:07;101835.19;;;10.64;69.10
63652;BME280;49801;37.536;-122.304;2022-11-12T01:27:32;101838.88;;;10.63;69.03
63652;BME280;49801;37.536;-122.304;2022-11-12T01:27:58;101836.31;;;10.62;69.05
63652;BME280;49801;37.536;-122.304;2022-11-12T01:28:24;101838.47;;;10.58;68.94
63652;BME280;49801;37.536;-122.304;2022-11-12T01:28:50;101832.34;;;10.56;68.73
63652;BME280;49801;37.536;-122.304;2022-11-12T01:29:15;101829.94;;;10.53;68.97
63652;BME280;49801;37.536;-122.304;2022-11-12T01:29:41;101841.78;;;10.52;68.74
63652;BME280;49801;37.536;-122.304;2022-11-12T01:30:07;101837.50;;;10.49;68.97
63652;BME280;49801;37.536;-122.304;2022-11-12T01:30:33;101840.34;;;10.48;69.03
63652;BME280;49801;37.536;-122.304;2022-11-12T01:31:16;101842.34;;;10.46;69.21
63652;BME280;49801;37.536;-122.304;2022-11-12T01:31:42;101830.94;;;10.42;69.37
63652;BME280;49801;37.536;-122.304;2022-11-12T01:32:08;101841.06;;;10.40;69.10
63652;BME280;49801;37.536;-122.304;2022-11-12T01:32:34;101836.78;;;10.38;69.08
63652;BME280;49801;37.536;-122.304;2022-11-12T01:33:01;101839.63;;;10.36;69.27
63652;BME280;49801;37.536;-122.304;2022-11-12T01:33:26;101829.97;;;10.34;69.25
63652;BME280;49801;37.536;-122.304;2022-11-12T01:33:53;101840.09;;;10.31;69.34
63652;BME280;49801;37.536;-122.304;2022-11-12T01:34:19;101836.63;;;10.29;69.37
63652;BME280;49801;37.536;-122.304;2022-11-12T01:34:45;101833.22;;;10.27;69.39
63652;BME280;49801;37.536;-122.304;2022-11-12T01:35:11;101841.47;;;10.26;69.28
63652;BME280;49801;37.536;-122.304;2022-11-12T01:35:36;101838.19;;;10.22;69.66
63652;BME280;49801;37.536;-122.304;2022-11-12T01:36:02;101839.22;;;10.21;69.72
63652;BME280;49801;37.536;-122.304;2022-11-12T01:36:30;101832.09;;;10.20;69.75
63652;BME280;49801;37.536;-122.304;2022-11-12T01:36:56;101826.94;;;10.17;69.50
63652;BME280;49801;37.536;-122.304;2022-11-12T01:37:22;101828.94;;;10.15;69.92
63652;BME280;49801;37.536;-122.304;2022-11-12T01:37:48;101836.38;;;10.13;70.04
63652;BME280;49801;37.536;-122.304;2022-11-12T01:38:14;101833.94;;;10.10;69.97
63652;BME280;49801;37.536;-122.304;2022-11-12T01:38:40;101837.50;;;10.10;69.74
63652;BME280;49801;37.536;-122.304;2022-11-12T01:39:06;101833.22;;;10.08;69.90
63652;BME280;49801;37.536;-122.304;2022-11-12T01:39:33;101836.91;;;10.07;70.25
63652;BME280;49801;37.536;-122.304;2022-11-12T01:39:58;101835.22;;;10.06;70.16
63652;BME280;49801;37.536;-122.304;2022-11-12T01:40:24;101843.63;;;10.03;70.40
63652;BME280;49801;37.536;-122.304;2022-11-12T01:40:50;101835.50;;;10.03;70.43
63652;BME280;49801;37.536;-122.304;2022-11-12T01:41:26;101844.75;;;10.00;70.42
63652;BME280;49801;37.536;-122.304;2022-11-12T01:41:52;101839.47;;;9.99;70.81
63652;BME280;49801;37.536;-122.304;2022-11-12T01:42:18;101838.78;;;9.97;70.65
63652;BME280;49801;37.536;-122.304;2022-11-12T01:42:45;101834.38;;;9.95;70.78
63652;BME280;49801;37.536;-122.304;2022-11-12T01:43:15;101841.03;;;9.91;70.68
63652;BME280;49801;37.536;-122.304;2022-11-12T01:43:41;101843.75;;;9.91;70.69
63652;BME280;49801;37.536;-122.304;2022-11-12T01:44:11;101844.03;;;9.88;70.88
63652;BME280;49801;37.536;-122.304;2022-11-12T01:44:38;101840.63;;;9.86;71.11
63652;BME280;49801;37.536;-122.304;2022-11-12T01:45:11;101837.22;;;9.84;70.73
63652;BME280;49801;37.536;-122.304;2022-11-12T01:45:40;101839.19;;;9.82;70.85
63652;BME280;49801;37.536;-122.304;2022-11-12T01:46:12;101835.78;;;9.80;70.97
63652;BME280;49801;37.536;-122.304;2022-11-12T01:47:24;101840.47;;;9.78;70.90
63652;BME280;49801;37.536;-122.304;2022-11-12T01:47:29;101846.19;;;9.75;70.99
63652;BME280;49801;37.536;-122.304;2022-11-12T01:47:57;101840.03;;;9.73;71.52
63652;BME280;49801;37.536;-122.304;2022-11-12T01:49:20;101844.03;;;9.69;71.28
63652;BME280;49801;37.536;-122.304;2022-11-12T01:50:32;101842.59;;;9.65;71.37
63652;BME280;49801;37.536;-122.304;2022-11-12T01:50:59;101848.16;;;9.63;71.61
63652;BME280;49801;37.536;-122.304;2022-11-12T01:51:31;101841.16;;;9.61;71.79
63652;BME280;49801;37.536;-122.304;2022-11-12T01:52:00;101841.44;;;9.57;71.70
63652;BME280;49801;37.536;-122.304;2022-11-12T01:52:38;101837.16;;;9.55;72.12
63652;BME280;49801;37.536;-122.304;2022-11-12T01:53:07;101836.31;;;9.54;72.16
63652;BME280;49801;37.536;-122.304;2022-11-12T01:53:38;101838.31;;;9.52;72.01
63652;BME280;49801;37.536;-122.304;2022-11-12T01:54:07;101840.13;;;9.52;72.06
63652;BME280;49801;37.536;-122.304;2022-11-12T01:54:33;101845.69;;;9.50;72.21
63652;BME280;49801;37.536;-122.304;2022-11-12T01:55:04;101839.56;;;9.48;72.45
63652;BME280;49801;37.536;-122.304;2022-11-12T01:55:32;101837.00;;;9.47;72.45
63652;BME280;49801;37.536;-122.304;2022-11-12T01:55:59;101839.00;;;9.45;72.82
63652;BME280;49801;37.536;-122.304;2022-11-12T01:56:28;101841.69;;;9.45;72.63
63652;BME280;49801;37.536;-122.304;2022-11-12T01:56:55;101840.97;;;9.43;72.68
63652;BME280;49801;37.536;-122.304;2022-11-12T01:57:23;101849.22;;;9.41;72.92
63652;BME280;49801;37.536;-122.304;2022-11-12T01:57:52;101839.69;;;9.37;72.98
63652;BME280;49801;37.536;-122.304;2022-11-12T01:58:19;101850.78;;;9.34;73.16
63652;BME280;49801;37.536;-122.304;2022-11-12T01:58:46;101845.38;;;9.34;73.47
63652;BME280;49801;37.536;-122.304;2022-11-12T01:59:16;101852.78;;;9.32;73.54
63652;BME280;49801;37.536;-122.304;2022-11-12T01:59:44;101840.22;;;9.31;73.53
63652;BME280;49801;37.536;-122.304;2022-11-12T02:00:12;101858.44;;;9.29;73.83
63652;BME280;49801;37.536;-122.304;2022-11-12T02:00:38;101842.22;;;9.29;73.41
63652;BME280;49801;37.536;-122.304;2022-11-12T02:01:05;101834.25;;;9.27;73.44
63652;BME280;49801;37.536;-122.304;2022-11-12T02:01:30;101845.06;;;9.27;73.60
63652;BME280;49801;37.536;-122.304;2022-11-12T02:01:56;101841.66;;;9.25;73.59
63652;BME280;49801;37.536;-122.304;2022-11-12T02:02:22;101848.88;;;9.25;73.74
63652;BME280;49801;37.536;-122.304;2022-11-12T02:02:51;101842.75;;;9.23;73.81
63652;BME280;49801;37.536;-122.304;2022-11-12T02:03:18;101841.91;;;9.22;73.72
63652;BME280;49801;37.536;-122.304;2022-11-12T02:03:44;101845.59;;;9.21;74.15
63652;BME280;49801;37.536;-122.304;2022-11-12T02:04:10;101848.44;;;9.19;74.16
63652;BME280;49801;37.536;-122.304;2022-11-12T02:04:37;101841.34;;;9.18;74.29
63652;BME280;49801;37.536;-122.304;2022-11-12T02:05:05;101837.91;;;9.16;74.04
63652;BME280;49801;37.536;-122.304;2022-11-12T02:05:33;101841.59;;;9.15;74.31
63652;BME280;49801;37.536;-122.304;2022-11-12T02:06:02;101843.59;;;9.13;74.06
63652;BME280;49801;37.536;-122.304;2022-11-12T02:06:29;101842.75;;;9.13;74.07
63652;BME280;49801;37.536;-122.304;2022-11-12T02:06:55;101840.19;;;9.11;74.23
63652;BME280;49801;37.536;-122.304;2022-11-12T02:07:22;101842.13;;;9.09;74.39
63652;BME280;49801;37.536;-122.304;2022-11-12T02:07:49;101850.25;;;9.09;74.42
63652;BME280;49801;37.536;-122.304;2022-11-12T02:08:15;101845.13;;;9.06;74.77
63652;BME280;49801;37.536;-122.304;2022-11-12T02:08:41;101845.28;;;9.05;74.58
63652;BME280;49801;37.536;-122.304;2022-11-12T02:09:08;101837.16;;;9.05;74.50
63652;BME280;49801;37.536;-122.304;2022-11-12T02:09:35;101836.44;;;9.03;74.94
63652;BME280;49801;37.536;-122.304;2022-11-12T02:10:01;101848.09;;;9.03;75.01
63652;BME280;49801;37.536;-122.304;2022-11-12T02:10:27;101848.38;;;9.00;75.12
63652;BME280;49801;37.536;-122.304;2022-11-12T02:10:54;101847.53;;;8.99;75.07
63652;BME280;49801;37.536;-122.304;2022-11-12T02:11:20;101837.81;;;8.97;75.34
63652;BME280;49801;37.536;-122.304;2022-11-12T02:11:46;101843.22;;;8.97;75.23
63652;BME280;49801;37.536;-122.304;2022-11-12T02:12:11;101845.22;;;8.95;75.40
63652;BME280;49801;37.536;-122.304;2022-11-12T02:12:57;101840.06;;;8.92;75.32
63652;BME280;49801;37.536;-122.304;2022-11-12T02:13:41;101856.28;;;8.92;75.75
63652;BME280;49801;37.536;-122.304;2022-11-12T02:14:25;101850.28;;;8.88;75.51
63652;BME280;49801;37.536;-122.304;2022-11-12T02:14:51;101847.72;;;8.87;75.56
63652;BME280;49801;37.536;-122.304;2022-11-12T02:15:17;101848.72;;;8.86;75.70
63652;BME280;49801;37.536;-122.304;2022-11-12T02:15:43;101849.72;;;8.85;76.15
63652;BME280;49801;37.536;-122.304;2022-11-12T02:16:09;101850.69;;;8.83;75.93
63652;BME280;49801;37.536;-122.304;2022-11-12T02:16:39;101845.28;;;8.83;76.15